createdAt,value
2022-09-17T00:00:01.114Z,61.32
2022-09-17T00:00:34.483Z,60.21
2022-09-17T00:01:28.804Z,59.89
2022-09-17T00:02:02.646Z,58.17
2022-09-17T00:02:36.156Z,57.79
2022-09-17T00:03:10.016Z,57.83
2022-09-17T00:03:44.045Z,58.21
2022-09-17T00:04:17.150Z,58.65
2022-09-17T00:04:50.525Z,59.02
2022-09-17T00:05:24.515Z,59.40
2022-09-17T00:06:06.837Z,59.98
2022-09-17T00:06:39.996Z,60.26
2022-09-17T00:07:13.226Z,61.03
2022-09-17T00:07:46.554Z,61.38
2022-09-17T00:08:19.668Z,61.70
2022-09-17T00:08:54.898Z,62.25
2022-09-17T00:09:28.393Z,62.64
2022-09-17T00:10:01.359Z,63.22
2022-09-17T00:10:39.929Z,63.13
2022-09-17T00:11:16.836Z,62.89
2022-09-17T00:11:50.064Z,61.89
2022-09-17T00:12:23.327Z,60.86
2022-09-17T00:12:56.688Z,59.87
2022-09-17T00:13:29.850Z,58.81
2022-09-17T00:14:05.836Z,57.76
2022-09-17T00:14:40.882Z,57.30
2022-09-17T00:15:14.345Z,57.29
2022-09-17T00:15:48.215Z,57.72
2022-09-17T00:16:29.454Z,58.20
2022-09-17T00:17:02.757Z,58.72
2022-09-17T00:17:35.849Z,59.51
2022-09-17T00:18:09.239Z,60.11
2022-09-17T00:18:42.431Z,60.69
2022-09-17T00:19:23.124Z,61.20
2022-09-17T00:19:56.939Z,61.49
2022-09-17T00:20:30.134Z,62.28
2022-09-17T00:21:04.381Z,62.88
2022-09-17T00:21:37.521Z,63.55
2022-09-17T00:22:10.592Z,63.49
2022-09-17T00:22:43.671Z,62.83
2022-09-17T00:23:16.903Z,61.95
2022-09-17T00:23:54.365Z,61.10
2022-09-17T00:24:27.672Z,60.53
2022-09-17T00:25:00.781Z,59.38
2022-09-17T00:25:33.896Z,58.50
2022-09-17T00:26:07.352Z,57.74
2022-09-17T00:26:40.675Z,57.38
2022-09-17T00:27:13.879Z,57.51
2022-09-17T00:27:47.527Z,57.83
2022-09-17T00:28:20.849Z,58.31
2022-09-17T00:28:55.313Z,58.74
2022-09-17T00:29:28.517Z,59.40
2022-09-17T00:30:01.715Z,60.03
2022-09-17T00:30:35.233Z,60.59
2022-09-17T00:31:10.144Z,61.14
2022-09-17T00:31:43.492Z,61.63
2022-09-17T00:32:16.606Z,62.18
2022-09-17T00:32:49.795Z,62.59
2022-09-17T00:33:23.003Z,63.06
2022-09-17T00:33:57.166Z,63.07
2022-09-17T00:34:30.424Z,62.76
2022-09-17T00:35:03.659Z,61.95
2022-09-17T00:35:37.060Z,61.38
2022-09-17T00:36:10.159Z,60.36
2022-09-17T00:36:43.258Z,59.51
2022-09-17T00:37:16.760Z,58.48
2022-09-17T00:37:49.930Z,57.70
2022-09-17T00:38:22.984Z,57.18
2022-09-17T00:38:58.797Z,57.30
2022-09-17T00:39:32.117Z,57.32
2022-09-17T00:40:05.578Z,57.93
2022-09-17T00:40:39.360Z,58.51
2022-09-17T00:41:12.598Z,59.24
2022-09-17T00:41:45.762Z,59.74
2022-09-17T00:42:19.556Z,60.38
2022-09-17T00:42:53.656Z,60.87
2022-09-17T00:43:48.347Z,61.39
2022-09-17T00:44:51.055Z,61.45
2022-09-17T00:45:25.380Z,61.78
2022-09-17T00:45:58.815Z,63.07
2022-09-17T00:46:35.435Z,63.78
2022-09-17T00:47:20.079Z,63.73
2022-09-17T00:48:05.816Z,63.62
2022-09-17T00:48:39.579Z,62.40
2022-09-17T00:49:28.844Z,60.69
2022-09-17T00:50:04.704Z,60.39
2022-09-17T00:50:43.870Z,58.74
2022-09-17T00:51:23.351Z,57.66
2022-09-17T00:52:10.114Z,57.38
2022-09-17T00:52:52.772Z,57.38
2022-09-17T00:53:26.019Z,57.85
2022-09-17T00:54:02.044Z,58.74
2022-09-17T00:54:39.247Z,59.24
2022-09-17T00:55:24.392Z,59.90
2022-09-17T00:56:11.981Z,60.43
2022-09-17T00:56:45.140Z,60.94
2022-09-17T00:57:18.678Z,62.05
2022-09-17T00:57:55.432Z,62.43
2022-09-17T00:58:31.719Z,63.27
2022-09-17T00:59:05.417Z,63.54
2022-09-17T00:59:38.833Z,63.04
2022-09-17T01:00:14.661Z,62.21
2022-09-17T01:00:47.734Z,61.55
2022-09-17T01:01:21.049Z,60.53
2022-09-17T01:01:54.476Z,59.67
2022-09-17T01:02:27.721Z,58.80
2022-09-17T01:03:01.729Z,57.98
2022-09-17T01:03:35.124Z,57.49
2022-09-17T01:04:17.355Z,57.50
2022-09-17T01:04:51.549Z,57.50
2022-09-17T01:06:02.691Z,58.12
2022-09-17T01:07:06.908Z,58.08
2022-09-17T01:08:03.214Z,59.28
2022-09-17T01:09:11.751Z,60.18
2022-09-17T01:10:01.365Z,60.81
2022-09-17T01:11:03.151Z,62.29
2022-09-17T01:12:24.109Z,64.38
2022-09-17T01:13:07.696Z,64.62
2022-09-17T01:14:00.184Z,62.10
2022-09-17T01:14:45.046Z,61.26
2022-09-17T01:15:26.251Z,59.29
2022-09-17T01:15:59.208Z,57.94
2022-09-17T01:16:32.445Z,57.58
2022-09-17T01:17:20.518Z,57.68
2022-09-17T01:18:05.477Z,57.76
2022-09-17T01:18:47.727Z,58.43
2022-09-17T01:19:42.980Z,59.35
2022-09-17T01:21:01.189Z,59.80
2022-09-17T01:21:48.366Z,60.19
2022-09-17T01:22:27.129Z,61.65
2022-09-17T01:23:28.123Z,62.59
2022-09-17T01:24:16.669Z,64.32
2022-09-17T01:24:58.776Z,64.06
2022-09-17T01:26:04.744Z,62.81
2022-09-17T01:26:53.076Z,62.76
2022-09-17T01:27:29.934Z,60.83
2022-09-17T01:28:47.203Z,59.19
2022-09-17T01:29:57.238Z,58.12
2022-09-17T01:30:39.284Z,57.68
2022-09-17T01:31:59.129Z,58.46
2022-09-17T01:32:38.025Z,58.70
2022-09-17T01:33:11.193Z,60.37
2022-09-17T01:34:08.677Z,61.28
2022-09-17T01:35:27.372Z,61.38
2022-09-17T01:36:00.485Z,63.16
2022-09-17T01:36:59.656Z,63.40
2022-09-17T01:37:46.184Z,63.83
2022-09-17T01:38:37.988Z,62.07
2022-09-17T01:39:31.175Z,61.29
2022-09-17T01:40:26.176Z,60.30
2022-09-17T01:41:09.031Z,59.01
2022-09-17T01:41:51.739Z,57.64
2022-09-17T01:42:32.779Z,57.52
2022-09-17T01:43:18.123Z,58.04
2022-09-17T01:43:58.135Z,58.77
2022-09-17T01:45:00.434Z,59.09
2022-09-17T01:45:48.280Z,59.38
2022-09-17T01:46:32.679Z,60.43
2022-09-17T01:47:20.882Z,61.37
2022-09-17T01:48:03.200Z,61.93
2022-09-17T01:48:43.419Z,62.94
2022-09-17T01:49:18.314Z,64.04
2022-09-17T01:49:55.929Z,63.96
2022-09-17T01:50:33.941Z,63.38
2022-09-17T01:51:09.505Z,62.34
2022-09-17T01:51:47.111Z,61.38
2022-09-17T01:52:21.566Z,60.46
2022-09-17T01:52:57.032Z,59.52
2022-09-17T01:53:44.361Z,58.41
2022-09-17T01:54:23.989Z,57.54
2022-09-17T01:55:02.168Z,57.16
2022-09-17T01:55:39.734Z,57.12
2022-09-17T01:56:17.560Z,57.57
2022-09-17T01:57:18.673Z,58.21
2022-09-17T01:57:58.630Z,58.51
2022-09-17T01:58:40.627Z,59.92
2022-09-17T01:59:22.070Z,60.42
2022-09-17T02:00:22.385Z,61.07
2022-09-17T02:01:03.656Z,61.24
2022-09-17T02:01:42.605Z,62.45
2022-09-17T02:02:25.726Z,63.51
2022-09-17T02:03:09.099Z,64.09
2022-09-17T02:03:53.997Z,63.37
2022-09-17T02:04:30.832Z,62.33
2022-09-17T02:05:12.581Z,60.49
2022-09-17T02:06:09.819Z,59.77
2022-09-17T02:06:49.470Z,59.24
2022-09-17T02:07:26.096Z,57.82
2022-09-17T02:08:17.064Z,57.79
2022-09-17T02:09:07.288Z,57.65
2022-09-17T02:09:56.260Z,58.29
2022-09-17T02:10:34.800Z,59.07
2022-09-17T02:11:17.416Z,60.02
2022-09-17T02:11:55.843Z,60.45
2022-09-17T02:12:35.421Z,61.19
2022-09-17T02:13:17.142Z,61.68
2022-09-17T02:14:03.293Z,62.21
2022-09-17T02:15:11.623Z,62.84
2022-09-17T02:15:51.517Z,64.46
2022-09-17T02:16:32.984Z,63.24
2022-09-17T02:17:13.153Z,62.23
2022-09-17T02:17:57.660Z,61.10
2022-09-17T02:18:38.668Z,60.19
2022-09-17T02:19:21.173Z,58.87
2022-09-17T02:19:56.494Z,57.80
2022-09-17T02:20:41.806Z,57.41
2022-09-17T02:21:27.294Z,57.48
2022-09-17T02:22:32.498Z,58.01
2022-09-17T02:23:13.829Z,58.40
2022-09-17T02:24:09.366Z,59.73
2022-09-17T02:24:53.035Z,60.09
2022-09-17T02:25:29.370Z,61.10
2022-09-17T02:26:13.002Z,62.01
2022-09-17T02:27:15.278Z,62.45
2022-09-17T02:27:57.458Z,64.14
2022-09-17T02:29:03.671Z,63.23
2022-09-17T02:29:43.806Z,63.45
2022-09-17T02:30:17.493Z,61.13
2022-09-17T02:30:50.905Z,59.54
2022-09-17T02:31:24.144Z,58.41
2022-09-17T02:31:57.421Z,57.44
2022-09-17T02:32:30.585Z,57.13
2022-09-17T02:33:07.586Z,57.13
2022-09-17T02:33:43.889Z,57.41
2022-09-17T02:34:17.216Z,57.90
2022-09-17T02:34:50.797Z,58.42
2022-09-17T02:35:24.179Z,59.05
2022-09-17T02:35:57.324Z,59.73
2022-09-17T02:36:32.433Z,60.45
2022-09-17T02:37:06.785Z,60.96
2022-09-17T02:37:41.508Z,61.57
2022-09-17T02:38:26.750Z,62.04
2022-09-17T02:39:02.019Z,62.17
2022-09-17T02:39:35.456Z,63.10
2022-09-17T02:40:11.151Z,63.18
2022-09-17T02:40:55.287Z,62.89
2022-09-17T02:42:22.746Z,62.66
2022-09-17T02:43:16.662Z,63.04
2022-09-17T02:44:05.444Z,59.89
2022-09-17T02:44:45.108Z,57.77
2022-09-17T02:45:46.455Z,57.00
2022-09-17T02:46:34.793Z,57.00
2022-09-17T02:47:38.075Z,57.73
2022-09-17T02:48:24.795Z,58.29
2022-09-17T02:49:15.885Z,59.59
2022-09-17T02:49:59.208Z,59.28
2022-09-17T02:50:41.297Z,59.61
2022-09-17T02:51:36.377Z,61.55
2022-09-17T02:52:45.061Z,61.81
2022-09-17T02:54:03.081Z,63.53
2022-09-17T02:54:36.051Z,65.41
2022-09-17T02:55:21.071Z,62.22
2022-09-17T02:56:10.956Z,61.73
2022-09-17T02:56:55.223Z,60.67
2022-09-17T02:57:38.006Z,58.72
2022-09-17T02:58:27.407Z,57.17
2022-09-17T02:59:14.359Z,56.68
2022-09-17T03:00:05.026Z,56.88
2022-09-17T03:00:39.144Z,57.28
2022-09-17T03:01:25.910Z,58.55
2022-09-17T03:02:02.560Z,59.03
2022-09-17T03:02:56.497Z,59.98
2022-09-17T03:03:38.126Z,60.24
2022-09-17T03:04:16.341Z,61.18
2022-09-17T03:04:50.708Z,61.71
2022-09-17T03:05:25.441Z,62.44
2022-09-17T03:06:00.401Z,62.73
2022-09-17T03:06:33.513Z,63.47
2022-09-17T03:07:15.175Z,63.44
2022-09-17T03:07:48.307Z,63.35
2022-09-17T03:08:30.210Z,62.06
2022-09-17T03:09:03.962Z,61.34
2022-09-17T03:09:36.959Z,60.04
2022-09-17T03:10:10.060Z,59.08
2022-09-17T03:10:43.502Z,58.30
2022-09-17T03:11:16.659Z,57.79
2022-09-17T03:11:49.764Z,57.58
2022-09-17T03:12:24.772Z,57.79
2022-09-17T03:12:58.050Z,58.05
2022-09-17T03:13:31.803Z,58.62
2022-09-17T03:14:05.025Z,59.22
2022-09-17T03:14:38.175Z,59.99
2022-09-17T03:15:11.380Z,60.58
2022-09-17T03:15:44.478Z,61.28
2022-09-17T03:16:18.281Z,61.57
2022-09-17T03:16:51.608Z,62.01
2022-09-17T03:17:24.745Z,62.60
2022-09-17T03:17:57.945Z,63.21
2022-09-17T03:18:31.876Z,63.49
2022-09-17T03:19:04.926Z,63.18
2022-09-17T03:19:38.224Z,62.46
2022-09-17T03:20:11.758Z,61.70
2022-09-17T03:20:46.746Z,60.84
2022-09-17T03:21:19.922Z,59.79
2022-09-17T03:21:53.078Z,58.69
2022-09-17T03:22:26.578Z,57.82
2022-09-17T03:22:59.706Z,57.47
2022-09-17T03:23:33.186Z,57.57
2022-09-17T03:24:06.451Z,57.86
2022-09-17T03:24:39.830Z,58.25
2022-09-17T03:25:13.297Z,58.86
2022-09-17T03:25:47.243Z,59.45
2022-09-17T03:26:20.430Z,60.11
2022-09-17T03:26:53.524Z,60.72
2022-09-17T03:27:26.590Z,61.16
2022-09-17T03:27:59.747Z,61.55
2022-09-17T03:28:32.964Z,62.02
2022-09-17T03:29:06.457Z,62.53
2022-09-17T03:29:39.565Z,63.20
2022-09-17T03:30:12.795Z,63.36
2022-09-17T03:30:46.218Z,63.08
2022-09-17T03:31:19.355Z,62.36
2022-09-17T03:31:52.458Z,61.57
2022-09-17T03:32:25.926Z,60.68
2022-09-17T03:32:59.326Z,59.88
2022-09-17T03:33:33.485Z,59.04
2022-09-17T03:34:07.626Z,58.20
2022-09-17T03:34:40.840Z,57.53
2022-09-17T03:35:13.947Z,57.36
2022-09-17T03:35:48.111Z,57.56
2022-09-17T03:36:21.474Z,57.93
2022-09-17T03:36:54.559Z,58.44
2022-09-17T03:37:32.249Z,58.97
2022-09-17T03:38:06.190Z,59.43
2022-09-17T03:38:39.342Z,60.09
2022-09-17T03:39:13.353Z,60.63
2022-09-17T03:39:46.681Z,61.19
2022-09-17T03:40:20.225Z,61.75
2022-09-17T03:41:07.444Z,62.36
2022-09-17T03:41:40.831Z,62.86
2022-09-17T03:42:13.948Z,63.49
2022-09-17T03:42:47.139Z,63.26
2022-09-17T03:43:20.203Z,62.87
2022-09-17T03:43:54.117Z,61.97
2022-09-17T03:44:27.192Z,61.07
2022-09-17T03:45:00.471Z,60.05
2022-09-17T03:45:33.662Z,59.29
2022-09-17T03:46:06.926Z,58.33
2022-09-17T03:46:40.133Z,57.69
2022-09-17T03:47:13.238Z,57.63
2022-09-17T03:47:46.359Z,57.78
2022-09-17T03:48:19.523Z,58.20
2022-09-17T03:48:52.625Z,58.57
2022-09-17T03:49:25.901Z,59.06
2022-09-17T03:49:59.084Z,59.70
2022-09-17T03:50:32.534Z,60.35
2022-09-17T03:51:06.849Z,60.76
2022-09-17T03:51:40.060Z,61.21
2022-09-17T03:52:13.163Z,61.70
2022-09-17T03:52:46.279Z,62.13
2022-09-17T03:53:19.603Z,62.70
2022-09-17T03:53:52.768Z,63.39
2022-09-17T03:54:26.157Z,63.64
2022-09-17T03:54:59.368Z,63.27
2022-09-17T03:55:32.733Z,62.40
2022-09-17T03:56:07.103Z,61.55
2022-09-17T03:56:40.184Z,60.61
2022-09-17T03:57:13.243Z,59.62
2022-09-17T03:57:46.452Z,58.74
2022-09-17T03:58:19.605Z,57.66
2022-09-17T03:58:52.811Z,57.20
2022-09-17T03:59:26.446Z,57.02
2022-09-17T03:59:59.905Z,57.39
2022-09-17T04:00:33.633Z,57.63
2022-09-17T04:01:06.739Z,58.33
2022-09-17T04:01:39.997Z,58.91
2022-09-17T04:02:13.352Z,59.33
2022-09-17T04:02:46.588Z,59.90
2022-09-17T04:03:20.206Z,60.44
2022-09-17T04:03:53.858Z,60.96
2022-09-17T04:04:27.251Z,61.39
2022-09-17T04:05:00.644Z,61.86
2022-09-17T04:05:34.072Z,62.29
2022-09-17T04:06:07.354Z,62.68
2022-09-17T04:06:40.561Z,63.20
2022-09-17T04:07:13.714Z,63.16
2022-09-17T04:07:46.913Z,62.84
2022-09-17T04:08:20.995Z,62.10
2022-09-17T04:08:54.257Z,61.25
2022-09-17T04:09:27.482Z,60.25
2022-09-17T04:10:00.700Z,59.29
2022-09-17T04:10:35.073Z,58.23
2022-09-17T04:11:08.910Z,57.57
2022-09-17T04:11:42.089Z,57.39
2022-09-17T04:12:15.730Z,57.66
2022-09-17T04:12:48.745Z,58.05
2022-09-17T04:13:22.231Z,58.65
2022-09-17T04:13:55.327Z,59.23
2022-09-17T04:14:28.544Z,59.80
2022-09-17T04:15:01.631Z,60.32
2022-09-17T04:15:34.930Z,60.80
2022-09-17T04:16:08.224Z,61.22
2022-09-17T04:16:41.398Z,61.60
2022-09-17T04:17:18.528Z,62.03
2022-09-17T04:17:51.791Z,62.51
2022-09-17T04:18:25.043Z,63.16
2022-09-17T04:18:58.076Z,63.23
2022-09-17T04:19:31.112Z,62.93
2022-09-17T04:20:06.532Z,62.30
2022-09-17T04:20:40.136Z,61.67
2022-09-17T04:21:13.340Z,60.63
2022-09-17T04:21:47.070Z,59.62
2022-09-17T04:22:20.173Z,58.69
2022-09-17T04:22:53.885Z,57.78
2022-09-17T04:23:27.081Z,57.32
2022-09-17T04:24:00.458Z,57.09
2022-09-17T04:24:33.581Z,57.42
2022-09-17T04:25:07.527Z,57.64
2022-09-17T04:25:41.076Z,58.22
2022-09-17T04:26:14.885Z,58.75
2022-09-17T04:26:48.075Z,59.37
2022-09-17T04:27:21.595Z,59.92
2022-09-17T04:27:55.221Z,60.60
2022-09-17T04:28:28.582Z,61.07
2022-09-17T04:29:01.873Z,61.49
2022-09-17T04:29:35.058Z,61.85
2022-09-17T04:30:08.713Z,62.25
2022-09-17T04:30:43.542Z,62.72
2022-09-17T04:31:16.900Z,63.34
2022-09-17T04:31:50.196Z,63.34
2022-09-17T04:32:23.516Z,63.08
2022-09-17T04:32:56.794Z,62.27
2022-09-17T04:33:30.061Z,61.18
2022-09-17T04:34:03.031Z,60.10
2022-09-17T04:34:36.324Z,59.22
2022-09-17T04:35:09.759Z,58.28
2022-09-17T04:35:43.755Z,57.71
2022-09-17T04:36:17.650Z,57.57
2022-09-17T04:36:50.812Z,57.65
2022-09-17T04:37:26.239Z,57.83
2022-09-17T04:37:59.495Z,58.41
2022-09-17T04:38:33.885Z,59.15
2022-09-17T04:39:07.251Z,59.73
2022-09-17T04:39:40.725Z,59.93
2022-09-17T04:40:14.021Z,60.45
2022-09-17T04:40:47.348Z,60.82
2022-09-17T04:41:20.753Z,61.49
2022-09-17T04:41:53.857Z,61.95
2022-09-17T04:42:27.079Z,62.35
2022-09-17T04:43:03.268Z,63.02
2022-09-17T04:43:36.540Z,63.44
2022-09-17T04:44:09.817Z,63.35
2022-09-17T04:44:43.143Z,62.74
2022-09-17T04:45:16.498Z,61.90
2022-09-17T04:45:51.027Z,61.07
2022-09-17T04:46:24.188Z,60.60
2022-09-17T04:46:57.526Z,59.82
2022-09-17T04:47:31.043Z,58.84
2022-09-17T04:48:05.124Z,58.08
2022-09-17T04:48:38.336Z,57.75
2022-09-17T04:49:11.783Z,57.81
2022-09-17T04:49:45.226Z,58.11
2022-09-17T04:50:19.770Z,58.48
2022-09-17T04:50:53.057Z,59.04
2022-09-17T04:51:26.336Z,59.68
2022-09-17T04:51:59.612Z,60.20
2022-09-17T04:52:33.883Z,60.87
2022-09-17T04:53:07.035Z,61.41
2022-09-17T04:53:40.661Z,61.96
2022-09-17T04:54:15.056Z,62.47
2022-09-17T04:54:48.211Z,62.95
2022-09-17T04:55:21.418Z,63.45
2022-09-17T04:55:54.957Z,63.48
2022-09-17T04:56:28.095Z,62.89
2022-09-17T04:57:01.528Z,61.94
2022-09-17T04:57:34.925Z,61.40
2022-09-17T04:58:08.192Z,60.50
2022-09-17T04:58:42.311Z,59.72
2022-09-17T04:59:15.514Z,58.80
2022-09-17T04:59:48.684Z,57.77
2022-09-17T05:00:23.601Z,57.34
2022-09-17T05:00:56.949Z,57.38
2022-09-17T05:01:30.254Z,57.66
2022-09-17T05:02:03.590Z,58.15
2022-09-17T05:02:36.987Z,58.58
2022-09-17T05:03:10.169Z,58.93
2022-09-17T05:03:43.597Z,59.44
2022-09-17T05:04:16.887Z,60.04
2022-09-17T05:04:51.005Z,60.62
2022-09-17T05:05:24.582Z,61.07
2022-09-17T05:05:57.842Z,61.44
2022-09-17T05:06:31.216Z,61.92
2022-09-17T05:07:04.579Z,62.33
2022-09-17T05:07:41.788Z,62.91
2022-09-17T05:08:15.111Z,63.63
2022-09-17T05:08:48.361Z,63.59
2022-09-17T05:09:21.640Z,62.91
2022-09-17T05:09:54.961Z,62.16
2022-09-17T05:10:28.269Z,61.20
2022-09-17T05:11:01.865Z,60.30
2022-09-17T05:11:34.911Z,59.47
2022-09-17T05:12:08.424Z,58.36
2022-09-17T05:12:41.800Z,57.59
2022-09-17T05:13:14.927Z,57.36
2022-09-17T05:13:48.169Z,57.49
2022-09-17T05:14:21.424Z,57.86
2022-09-17T05:14:54.558Z,58.37
2022-09-17T05:15:28.420Z,58.74
2022-09-17T05:16:01.979Z,59.36
2022-09-17T05:16:35.321Z,59.89
2022-09-17T05:17:08.696Z,60.46
2022-09-17T05:17:41.918Z,61.15
2022-09-17T05:18:15.081Z,61.68
2022-09-17T05:18:50.003Z,62.07
2022-09-17T05:19:23.219Z,62.39
2022-09-17T05:19:56.323Z,62.93
2022-09-17T05:20:30.064Z,63.21
2022-09-17T05:21:03.266Z,63.25
2022-09-17T05:21:36.501Z,62.89
2022-09-17T05:22:09.656Z,62.20
2022-09-17T05:22:47.626Z,61.24
2022-09-17T05:23:21.273Z,60.65
2022-09-17T05:23:54.878Z,59.45
2022-09-17T05:24:28.057Z,58.34
2022-09-17T05:25:01.376Z,57.51
2022-09-17T05:25:35.948Z,57.29
2022-09-17T05:26:09.098Z,57.44
2022-09-17T05:26:42.167Z,57.64
2022-09-17T05:27:15.498Z,58.20
2022-09-17T05:27:48.807Z,58.85
2022-09-17T05:28:22.046Z,59.44
2022-09-17T05:28:55.550Z,60.00
2022-09-17T05:29:28.840Z,60.60
2022-09-17T05:30:02.014Z,61.30
2022-09-17T05:30:35.437Z,61.86
2022-09-17T05:31:08.864Z,62.29
2022-09-17T05:31:42.261Z,62.76
2022-09-17T05:32:16.202Z,63.33
2022-09-17T05:32:49.901Z,63.38
2022-09-17T05:33:23.346Z,62.78
2022-09-17T05:33:58.691Z,62.02
2022-09-17T05:34:31.771Z,61.09
2022-09-17T05:35:06.166Z,60.14
2022-09-17T05:35:39.771Z,59.39
2022-09-17T05:36:12.991Z,58.38
2022-09-17T05:36:46.051Z,57.84
2022-09-17T05:37:19.094Z,57.71
2022-09-17T05:37:52.224Z,57.78
2022-09-17T05:38:25.605Z,58.16
2022-09-17T05:38:58.997Z,58.57
2022-09-17T05:39:33.312Z,59.07
2022-09-17T05:40:08.454Z,59.60
2022-09-17T05:40:41.798Z,60.12
2022-09-17T05:41:14.883Z,60.72
2022-09-17T05:41:48.618Z,61.37
2022-09-17T05:42:21.982Z,61.89
2022-09-17T05:43:02.745Z,62.25
2022-09-17T05:43:37.015Z,62.50
2022-09-17T05:44:11.401Z,63.21
2022-09-17T05:44:47.031Z,63.41
2022-09-17T05:45:20.153Z,62.82
2022-09-17T05:45:54.658Z,62.04
2022-09-17T05:46:28.007Z,60.96
2022-09-17T05:47:01.862Z,60.02
2022-09-17T05:47:35.717Z,59.23
2022-09-17T05:48:13.319Z,57.93
2022-09-17T05:48:46.382Z,57.57
2022-09-17T05:49:19.458Z,57.59
2022-09-17T05:49:52.605Z,57.90
2022-09-17T05:50:26.743Z,58.10
2022-09-17T05:50:59.856Z,58.53
2022-09-17T05:51:33.007Z,58.92
2022-09-17T05:52:06.187Z,59.21
2022-09-17T05:52:39.465Z,59.81
2022-09-17T05:53:14.067Z,60.29
2022-09-17T05:53:47.898Z,60.76
2022-09-17T05:54:21.095Z,61.34
2022-09-17T05:54:54.287Z,62.00
2022-09-17T05:55:28.099Z,62.39
2022-09-17T05:56:02.995Z,62.79
2022-09-17T05:56:36.241Z,63.18
2022-09-17T05:57:09.488Z,62.90
2022-09-17T05:57:42.687Z,62.31
2022-09-17T05:58:19.945Z,61.45
2022-09-17T05:58:57.122Z,60.60
2022-09-17T05:59:30.174Z,59.58
2022-09-17T06:00:05.006Z,57.97
2022-09-17T06:00:39.148Z,57.00
2022-09-17T06:01:16.475Z,56.49
2022-09-17T06:01:51.247Z,56.23
2022-09-17T06:02:24.492Z,56.54
2022-09-17T06:02:58.355Z,56.92
2022-09-17T06:03:31.729Z,57.30
2022-09-17T06:04:05.187Z,57.93
2022-09-17T06:04:38.432Z,58.56
2022-09-17T06:05:11.786Z,59.40
2022-09-17T06:05:56.781Z,59.92
2022-09-17T06:06:31.201Z,60.17
2022-09-17T06:07:09.611Z,60.83
2022-09-17T06:07:42.920Z,61.18
2022-09-17T06:08:16.099Z,61.91
2022-09-17T06:08:49.342Z,62.41
2022-09-17T06:09:22.549Z,62.82
2022-09-17T06:09:55.627Z,63.24
2022-09-17T06:10:28.850Z,63.18
2022-09-17T06:11:05.991Z,62.49
2022-09-17T06:11:39.915Z,61.55
2022-09-17T06:12:13.263Z,60.38
2022-09-17T06:12:46.278Z,59.54
2022-09-17T06:13:20.775Z,58.55
2022-09-17T06:13:55.124Z,57.70
2022-09-17T06:14:28.242Z,57.29
2022-09-17T06:15:02.101Z,57.24
2022-09-17T06:15:35.287Z,57.31
2022-09-17T06:16:08.534Z,57.64
2022-09-17T06:16:41.903Z,57.96
2022-09-17T06:17:19.024Z,58.49
2022-09-17T06:17:55.146Z,58.87
2022-09-17T06:18:30.356Z,59.82
2022-09-17T06:19:04.571Z,60.10
2022-09-17T06:19:37.915Z,60.53
2022-09-17T06:20:11.299Z,61.00
2022-09-17T06:20:53.148Z,61.53
2022-09-17T06:21:26.267Z,61.73
2022-09-17T06:21:59.474Z,62.53
2022-09-17T06:22:32.970Z,63.05
2022-09-17T06:23:06.110Z,63.36
2022-09-17T06:23:39.228Z,62.96
2022-09-17T06:24:12.638Z,62.16
2022-09-17T06:24:46.189Z,61.16
2022-09-17T06:25:19.372Z,60.18
2022-09-17T06:25:53.353Z,59.16
2022-09-17T06:26:26.549Z,57.98
2022-09-17T06:26:59.959Z,57.50
2022-09-17T06:27:34.474Z,57.31
2022-09-17T06:28:07.603Z,57.28
2022-09-17T06:28:41.987Z,57.58
2022-09-17T06:29:16.486Z,57.93
2022-09-17T06:29:49.811Z,58.50
2022-09-17T06:30:23.130Z,59.11
2022-09-17T06:31:05.143Z,59.75
2022-09-17T06:31:38.403Z,60.11
2022-09-17T06:32:13.431Z,60.74
2022-09-17T06:32:46.654Z,61.02
2022-09-17T06:33:21.046Z,61.61
2022-09-17T06:33:58.569Z,61.99
2022-09-17T06:34:32.168Z,62.29
2022-09-17T06:35:05.824Z,62.81
2022-09-17T06:35:39.081Z,63.19
2022-09-17T06:36:14.442Z,63.13
2022-09-17T06:36:50.130Z,62.69
2022-09-17T06:37:31.656Z,61.67
2022-09-17T06:38:06.089Z,61.01
2022-09-17T06:38:40.002Z,59.65
2022-09-17T06:39:13.824Z,58.20
2022-09-17T06:39:47.144Z,57.20
2022-09-17T06:40:20.329Z,56.60
2022-09-17T06:40:53.773Z,56.50
2022-09-17T06:41:27.579Z,56.65
2022-09-17T06:42:00.837Z,56.89
2022-09-17T06:42:34.105Z,57.54
2022-09-17T06:43:07.733Z,57.92
2022-09-17T06:43:41.015Z,58.50
2022-09-17T06:44:14.535Z,59.08
2022-09-17T06:44:48.288Z,59.29
2022-09-17T06:45:21.432Z,59.81
2022-09-17T06:45:56.931Z,60.29
2022-09-17T06:46:30.211Z,60.74
2022-09-17T06:47:03.295Z,61.27
2022-09-17T06:47:36.510Z,61.61
2022-09-17T06:48:09.585Z,61.78
2022-09-17T06:48:43.108Z,62.11
2022-09-17T06:49:18.099Z,62.26
2022-09-17T06:49:51.980Z,62.24
2022-09-17T06:50:25.865Z,62.82
2022-09-17T06:51:06.595Z,62.69
2022-09-17T06:51:39.939Z,62.25
2022-09-17T06:52:13.330Z,61.11
2022-09-17T06:52:53.656Z,60.18
2022-09-17T06:53:26.777Z,59.46
2022-09-17T06:54:00.073Z,57.73
2022-09-17T06:54:33.914Z,57.15
2022-09-17T06:55:07.520Z,56.95
2022-09-17T06:55:41.202Z,57.18
2022-09-17T06:56:14.928Z,57.49
2022-09-17T06:56:48.304Z,57.81
2022-09-17T06:57:21.501Z,58.02
2022-09-17T06:57:54.736Z,58.29
2022-09-17T06:58:30.169Z,58.80
2022-09-17T06:59:03.906Z,59.42
2022-09-17T06:59:37.106Z,59.85
2022-09-17T07:00:11.308Z,60.56
2022-09-17T07:00:45.186Z,60.80
2022-09-17T07:01:18.593Z,61.21
2022-09-17T07:01:51.867Z,61.54
2022-09-17T07:02:25.387Z,61.94
2022-09-17T07:03:00.150Z,62.38
2022-09-17T07:03:35.109Z,62.54
2022-09-17T07:04:08.449Z,62.97
2022-09-17T07:04:41.665Z,62.75
2022-09-17T07:05:14.887Z,61.97
2022-09-17T07:05:48.144Z,60.84
2022-09-17T07:06:21.643Z,59.14
2022-09-17T07:06:54.878Z,57.96
2022-09-17T07:07:29.476Z,57.23
2022-09-17T07:08:03.962Z,56.93
2022-09-17T07:08:38.438Z,56.99
2022-09-17T07:09:12.249Z,57.02
2022-09-17T07:09:46.050Z,57.67
2022-09-17T07:10:20.794Z,57.80
2022-09-17T07:10:58.689Z,58.27
2022-09-17T07:11:32.343Z,58.75
2022-09-17T07:12:09.617Z,59.45
2022-09-17T07:12:45.598Z,59.61
2022-09-17T07:13:23.598Z,59.48
2022-09-17T07:13:56.821Z,60.13
2022-09-17T07:14:29.916Z,60.26
2022-09-17T07:15:03.083Z,60.13
2022-09-17T07:15:36.788Z,60.27
2022-09-17T07:16:10.843Z,60.25
2022-09-17T07:16:44.239Z,60.65
2022-09-17T07:17:17.668Z,61.02
2022-09-17T07:17:51.460Z,61.34
2022-09-17T07:18:25.323Z,61.70
2022-09-17T07:18:58.579Z,62.12
2022-09-17T07:19:32.259Z,62.48
2022-09-17T07:20:07.675Z,62.61
2022-09-17T07:20:40.733Z,62.63
2022-09-17T07:21:13.871Z,62.15
2022-09-17T07:21:49.464Z,61.25
2022-09-17T07:22:25.513Z,60.25
2022-09-17T07:22:59.461Z,58.87
2022-09-17T07:23:35.705Z,57.69
2022-09-17T07:24:09.267Z,56.93
2022-09-17T07:24:42.655Z,56.57
2022-09-17T07:25:16.780Z,56.56
2022-09-17T07:25:55.077Z,56.78
2022-09-17T07:26:28.551Z,57.24
2022-09-17T07:27:02.162Z,57.25
2022-09-17T07:27:35.819Z,57.73
2022-09-17T07:28:09.121Z,58.19
2022-09-17T07:28:44.183Z,58.85
2022-09-17T07:29:17.365Z,59.44
2022-09-17T07:29:50.473Z,59.61
2022-09-17T07:30:23.925Z,59.62
2022-09-17T07:30:57.494Z,59.87
2022-09-17T07:31:31.789Z,60.09
2022-09-17T07:32:05.272Z,60.51
2022-09-17T07:32:39.052Z,60.86
2022-09-17T07:33:12.487Z,60.94
2022-09-17T07:33:46.473Z,60.94
2022-09-17T07:34:20.125Z,61.11
2022-09-17T07:34:53.439Z,60.90
2022-09-17T07:35:26.916Z,61.40
2022-09-17T07:36:03.279Z,61.58
2022-09-17T07:36:36.464Z,61.55
2022-09-17T07:37:09.750Z,61.98
2022-09-17T07:37:42.988Z,62.22
2022-09-17T07:38:16.229Z,62.23
2022-09-17T07:38:49.588Z,62.02
2022-09-17T07:39:23.172Z,61.77
2022-09-17T07:39:56.941Z,62.14
2022-09-17T07:40:30.332Z,62.38
2022-09-17T07:41:06.762Z,62.76
2022-09-17T07:41:40.669Z,63.22
2022-09-17T07:42:14.149Z,62.72
2022-09-17T07:42:47.873Z,61.76
2022-09-17T07:43:21.743Z,60.52
2022-09-17T07:43:58.401Z,59.50
2022-09-17T07:44:32.180Z,58.51
2022-09-17T07:45:06.985Z,57.23
2022-09-17T07:45:40.227Z,57.01
2022-09-17T07:46:16.757Z,56.93
2022-09-17T07:46:50.488Z,57.12
2022-09-17T07:47:23.958Z,57.43
2022-09-17T07:47:57.243Z,57.19
2022-09-17T07:48:30.825Z,57.07
2022-09-17T07:49:04.073Z,57.49
2022-09-17T07:49:37.244Z,57.65
2022-09-17T07:50:10.702Z,58.23
2022-09-17T07:50:43.861Z,57.94
2022-09-17T07:51:28.636Z,57.35
2022-09-17T07:52:06.574Z,57.53